sensor_id;sensor_type;location;lat;lon;timestamp;temperature;humidity
46508;DHT22;32223;53.654;10.014;2023-05-08T00:01:57;9.50;99.90
46508;DHT22;32223;53.654;10.014;2023-05-08T00:04:22;9.50;99.90
46508;DHT22;32223;53.654;10.014;2023-05-08T00:06:48;9.50;99.90
46508;DHT22;32223;53.654;10.014;2023-05-08T00:09:15;9.50;99.90
46508;DHT22;32223;53.654;10.014;2023-05-08T00:11:41;9.50;99.90
46508;DHT22;32223;53.654;10.014;2023-05-08T00:14:07;9.50;99.90
46508;DHT22;32223;53.654;10.014;2023-05-08T00:16:32;9.40;99.90
46508;DHT22;32223;53.654;10.014;2023-05-08T00:18:58;9.40;99.90
46508;DHT22;32223;53.654;10.014;2023-05-08T00:21:24;9.30;99.90
46508;DHT22;32223;53.654;10.014;2023-05-08T00:23:50;9.20;99.90
46508;DHT22;32223;53.654;10.014;2023-05-08T00:26:16;9.20;99.90
46508;DHT22;32223;53.654;10.014;2023-05-08T00:28:41;9.20;99.90
46508;DHT22;32223;53.654;10.014;2023-05-08T00:31:07;9.20;99.90
46508;DHT22;32223;53.654;10.014;2023-05-08T00:33:33;9.10;99.90
46508;DHT22;32223;53.654;10.014;2023-05-08T00:36:02;9.10;99.90
46508;DHT22;32223;53.654;10.014;2023-05-08T00:38:32;9.10;99.90
46508;DHT22;32223;53.654;10.014;2023-05-08T00:40:58;9.10;99.90
46508;DHT22;32223;53.654;10.014;2023-05-08T00:43:24;9.10;99.90
46508;DHT22;32223;53.654;10.014;2023-05-08T00:45:56;9.00;99.90
46508;DHT22;32223;53.654;10.014;2023-05-08T00:48:24;8.90;99.90
46508;DHT22;32223;53.654;10.014;2023-05-08T00:50:51;8.90;99.90
46508;DHT22;32223;53.654;10.014;2023-05-08T00:53:18;8.80;99.90
46508;DHT22;32223;53.654;10.014;2023-05-08T00:55:44;8.80;99.90
46508;DHT22;32223;53.654;10.014;2023-05-08T00:58:11;8.80;99.90
46508;DHT22;32223;53.654;10.014;2023-05-08T01:00:40;8.80;99.90
46508;DHT22;32223;53.654;10.014;2023-05-08T01:03:06;8.80;99.90
46508;DHT22;32223;53.654;10.014;2023-05-08T01:05:34;8.80;99.90
46508;DHT22;32223;53.654;10.014;2023-05-08T01:08:00;8.70;99.90
46508;DHT22;32223;53.654;10.014;2023-05-08T01:10:37;8.70;99.90
46508;DHT22;32223;53.654;10.014;2023-05-08T01:13:13;8.70;99.90
46508;DHT22;32223;53.654;10.014;2023-05-08T01:15:56;8.60;99.90
46508;DHT22;32223;53.654;10.014;2023-05-08T01:18:32;8.60;99.90
46508;DHT22;32223;53.654;10.014;2023-05-08T01:32:16;8.40;99.90
46508;DHT22;32223;53.654;10.014;2023-05-08T01:34:57;8.40;99.90
46508;DHT22;32223;53.654;10.014;2023-05-08T01:40:34;8.30;99.90
46508;DHT22;32223;53.654;10.014;2023-05-08T01:43:10;8.30;99.90
46508;DHT22;32223;53.654;10.014;2023-05-08T01:45:44;8.20;99.90
46508;DHT22;32223;53.654;10.014;2023-05-08T01:48:38;8.20;99.90
46508;DHT22;32223;53.654;10.014;2023-05-08T01:51:07;8.20;99.90
46508;DHT22;32223;53.654;10.014;2023-05-08T01:53:44;8.20;99.90
46508;DHT22;32223;53.654;10.014;2023-05-08T01:56:15;8.20;99.90
46508;DHT22;32223;53.654;10.014;2023-05-08T01:58:42;8.20;99.90
46508;DHT22;32223;53.654;10.014;2023-05-08T02:01:10;8.30;99.90
46508;DHT22;32223;53.654;10.014;2023-05-08T02:03:38;8.20;99.90
46508;DHT22;32223;53.654;10.014;2023-05-08T02:06:06;8.20;99.90
46508;DHT22;32223;53.654;10.014;2023-05-08T02:08:34;8.20;99.90
46508;DHT22;32223;53.654;10.014;2023-05-08T02:11:00;8.20;99.90
46508;DHT22;32223;53.654;10.014;2023-05-08T02:13:28;8.10;99.90
46508;DHT22;32223;53.654;10.014;2023-05-08T02:15:55;8.10;99.90
46508;DHT22;32223;53.654;10.014;2023-05-08T02:18:23;8.00;99.90
46508;DHT22;32223;53.654;10.014;2023-05-08T02:20:51;8.00;99.90
46508;DHT22;32223;53.654;10.014;2023-05-08T02:23:18;8.00;99.90
46508;DHT22;32223;53.654;10.014;2023-05-08T02:25:45;8.00;99.90
46508;DHT22;32223;53.654;10.014;2023-05-08T02:28:11;8.00;99.90
46508;DHT22;32223;53.654;10.014;2023-05-08T02:30:37;8.00;99.90
46508;DHT22;32223;53.654;10.014;2023-05-08T02:33:06;8.00;99.90
46508;DHT22;32223;53.654;10.014;2023-05-08T02:35:33;8.00;99.90
46508;DHT22;32223;53.654;10.014;2023-05-08T02:38:01;7.90;99.90
46508;DHT22;32223;53.654;10.014;2023-05-08T02:40:28;7.90;99.90
46508;DHT22;32223;53.654;10.014;2023-05-08T02:42:55;7.90;99.90
46508;DHT22;32223;53.654;10.014;2023-05-08T02:45:24;7.90;99.90
46508;DHT22;32223;53.654;10.014;2023-05-08T02:48:11;7.80;99.90
46508;DHT22;32223;53.654;10.014;2023-05-08T02:50:46;7.70;99.90
46508;DHT22;32223;53.654;10.014;2023-05-08T02:53:21;7.70;99.90
46508;DHT22;32223;53.654;10.014;2023-05-08T02:55:52;7.70;99.90
46508;DHT22;32223;53.654;10.014;2023-05-08T02:58:43;7.70;99.90
46508;DHT22;32223;53.654;10.014;2023-05-08T03:01:23;7.60;99.90
46508;DHT22;32223;53.654;10.014;2023-05-08T03:04:01;7.60;99.90
46508;DHT22;32223;53.654;10.014;2023-05-08T03:06:34;7.60;99.90
46508;DHT22;32223;53.654;10.014;2023-05-08T03:09:02;7.50;99.90
46508;DHT22;32223;53.654;10.014;2023-05-08T03:11:35;7.50;99.90
46508;DHT22;32223;53.654;10.014;2023-05-08T03:14:05;7.50;99.90
46508;DHT22;32223;53.654;10.014;2023-05-08T03:16:35;7.40;99.90
46508;DHT22;32223;53.654;10.014;2023-05-08T03:19:08;7.40;99.90
46508;DHT22;32223;53.654;10.014;2023-05-08T03:21:37;7.40;99.90
46508;DHT22;32223;53.654;10.014;2023-05-08T03:24:06;7.40;99.90
46508;DHT22;32223;53.654;10.014;2023-05-08T03:26:33;7.40;99.90
46508;DHT22;32223;53.654;10.014;2023-05-08T03:28:59;7.30;99.90
46508;DHT22;32223;53.654;10.014;2023-05-08T03:31:25;7.30;99.90
46508;DHT22;32223;53.654;10.014;2023-05-08T03:33:53;7.20;99.90
46508;DHT22;32223;53.654;10.014;2023-05-08T03:36:20;7.30;99.90
46508;DHT22;32223;53.654;10.014;2023-05-08T03:38:47;7.20;99.90
46508;DHT22;32223;53.654;10.014;2023-05-08T03:41:13;7.10;99.90
46508;DHT22;32223;53.654;10.014;2023-05-08T03:43:40;7.10;99.90
46508;DHT22;32223;53.654;10.014;2023-05-08T03:46:06;7.10;99.90
46508;DHT22;32223;53.654;10.014;2023-05-08T03:48:33;7.10;99.90
46508;DHT22;32223;53.654;10.014;2023-05-08T03:51:02;7.10;99.90
46508;DHT22;32223;53.654;10.014;2023-05-08T03:53:29;7.10;99.90
46508;DHT22;32223;53.654;10.014;2023-05-08T03:55:56;7.20;99.90
46508;DHT22;32223;53.654;10.014;2023-05-08T04:06:36;7.10;99.90
46508;DHT22;32223;53.654;10.014;2023-05-08T04:09:19;7.10;99.90
46508;DHT22;32223;53.654;10.014;2023-05-08T04:12:01;7.10;99.90
46508;DHT22;32223;53.654;10.014;2023-05-08T04:14:33;7.10;99.90
46508;DHT22;32223;53.654;10.014;2023-05-08T04:17:04;7.10;99.90
46508;DHT22;32223;53.654;10.014;2023-05-08T04:19:35;7.10;99.90
46508;DHT22;32223;53.654;10.014;2023-05-08T04:22:05;7.10;99.90
46508;DHT22;32223;53.654;10.014;2023-05-08T04:24:34;7.20;99.90
46508;DHT22;32223;53.654;10.014;2023-05-08T04:27:01;7.20;99.90
46508;DHT22;32223;53.654;10.014;2023-05-08T04:29:28;7.20;99.90
46508;DHT22;32223;53.654;10.014;2023-05-08T04:31:54;7.30;99.90
46508;DHT22;32223;53.654;10.014;2023-05-08T04:34:22;7.20;99.90
46508;DHT22;32223;53.654;10.014;2023-05-08T04:36:47;7.30;99.90
46508;DHT22;32223;53.654;10.014;2023-05-08T04:39:13;7.40;99.90
46508;DHT22;32223;53.654;10.014;2023-05-08T04:41:39;7.40;99.90
46508;DHT22;32223;53.654;10.014;2023-05-08T04:44:04;7.40;99.90
46508;DHT22;32223;53.654;10.014;2023-05-08T04:46:30;7.40;99.90
46508;DHT22;32223;53.654;10.014;2023-05-08T04:48:56;7.50;99.90
46508;DHT22;32223;53.654;10.014;2023-05-08T04:51:21;7.50;99.90
46508;DHT22;32223;53.654;10.014;2023-05-08T04:53:47;7.50;99.90
46508;DHT22;32223;53.654;10.014;2023-05-08T04:56:12;7.60;99.90
46508;DHT22;32223;53.654;10.014;2023-05-08T04:58:38;7.70;99.90
46508;DHT22;32223;53.654;10.014;2023-05-08T05:01:04;7.70;99.90
46508;DHT22;32223;53.654;10.014;2023-05-08T05:03:29;7.70;99.90
46508;DHT22;32223;53.654;10.014;2023-05-08T05:05:59;7.70;99.90
46508;DHT22;32223;53.654;10.014;2023-05-08T05:08:25;7.80;99.90
46508;DHT22;32223;53.654;10.014;2023-05-08T05:10:51;7.90;99.90
46508;DHT22;32223;53.654;10.014;2023-05-08T05:13:17;7.90;99.90
46508;DHT22;32223;53.654;10.014;2023-05-08T05:15:43;8.00;99.90
46508;DHT22;32223;53.654;10.014;2023-05-08T05:18:08;8.10;99.90
46508;DHT22;32223;53.654;10.014;2023-05-08T05:20:34;8.10;99.90
46508;DHT22;32223;53.654;10.014;2023-05-08T05:22:59;8.20;99.90
46508;DHT22;32223;53.654;10.014;2023-05-08T05:25:25;8.30;99.90
46508;DHT22;32223;53.654;10.014;2023-05-08T05:27:51;8.30;99.90
46508;DHT22;32223;53.654;10.014;2023-05-08T05:30:17;8.40;99.90
46508;DHT22;32223;53.654;10.014;2023-05-08T05:32:42;8.40;99.90
46508;DHT22;32223;53.654;10.014;2023-05-08T05:35:08;8.50;99.90
46508;DHT22;32223;53.654;10.014;2023-05-08T05:37:34;8.50;99.90
46508;DHT22;32223;53.654;10.014;2023-05-08T05:40:00;8.60;99.90
46508;DHT22;32223;53.654;10.014;2023-05-08T05:42:26;8.70;99.90
46508;DHT22;32223;53.654;10.014;2023-05-08T05:44:51;8.70;99.90
46508;DHT22;32223;53.654;10.014;2023-05-08T05:47:17;8.80;99.90
46508;DHT22;32223;53.654;10.014;2023-05-08T05:49:43;8.80;99.90
46508;DHT22;32223;53.654;10.014;2023-05-08T05:52:12;8.90;99.90
46508;DHT22;32223;53.654;10.014;2023-05-08T05:54:37;8.90;99.90
46508;DHT22;32223;53.654;10.014;2023-05-08T05:57:03;9.00;99.90
46508;DHT22;32223;53.654;10.014;2023-05-08T05:59:29;9.10;99.90
46508;DHT22;32223;53.654;10.014;2023-05-08T06:01:55;9.20;99.90
46508;DHT22;32223;53.654;10.014;2023-05-08T06:04:21;9.20;99.90
46508;DHT22;32223;53.654;10.014;2023-05-08T06:06:48;9.30;99.90
46508;DHT22;32223;53.654;10.014;2023-05-08T06:09:13;9.30;99.90
46508;DHT22;32223;53.654;10.014;2023-05-08T06:11:40;9.30;99.90
46508;DHT22;32223;53.654;10.014;2023-05-08T06:14:06;9.40;99.90
46508;DHT22;32223;53.654;10.014;2023-05-08T06:16:32;9.40;99.90
46508;DHT22;32223;53.654;10.014;2023-05-08T06:18:59;9.50;99.90
46508;DHT22;32223;53.654;10.014;2023-05-08T06:21:25;9.50;99.90
46508;DHT22;32223;53.654;10.014;2023-05-08T06:23:53;9.60;99.90
46508;DHT22;32223;53.654;10.014;2023-05-08T06:26:18;9.70;99.90
46508;DHT22;32223;53.654;10.014;2023-05-08T06:28:44;9.80;99.90
46508;DHT22;32223;53.654;10.014;2023-05-08T06:31:09;9.90;99.90
46508;DHT22;32223;53.654;10.014;2023-05-08T06:33:35;10.00;99.90
46508;DHT22;32223;53.654;10.014;2023-05-08T06:36:02;10.10;99.90
46508;DHT22;32223;53.654;10.014;2023-05-08T06:38:28;10.30;99.90
46508;DHT22;32223;53.654;10.014;2023-05-08T06:40:53;10.40;99.90
46508;DHT22;32223;53.654;10.014;2023-05-08T06:43:19;10.40;99.90
46508;DHT22;32223;53.654;10.014;2023-05-08T06:45:46;10.50;99.90
46508;DHT22;32223;53.654;10.014;2023-05-08T06:48:11;10.50;99.90
46508;DHT22;32223;53.654;10.014;2023-05-08T06:50:37;10.60;99.90
46508;DHT22;32223;53.654;10.014;2023-05-08T06:53:03;10.80;99.90
46508;DHT22;32223;53.654;10.014;2023-05-08T06:55:29;10.90;99.90
46508;DHT22;32223;53.654;10.014;2023-05-08T06:57:55;11.00;99.90
46508;DHT22;32223;53.654;10.014;2023-05-08T07:00:20;11.10;99.90
46508;DHT22;32223;53.654;10.014;2023-05-08T07:02:46;11.00;99.90
46508;DHT22;32223;53.654;10.014;2023-05-08T07:05:12;11.00;99.90
46508;DHT22;32223;53.654;10.014;2023-05-08T07:07:37;11.00;99.90
46508;DHT22;32223;53.654;10.014;2023-05-08T07:10:03;11.10;99.90
46508;DHT22;32223;53.654;10.014;2023-05-08T07:12:29;11.20;99.90
46508;DHT22;32223;53.654;10.014;2023-05-08T07:14:54;11.30;99.90
46508;DHT22;32223;53.654;10.014;2023-05-08T07:17:20;11.50;99.90
46508;DHT22;32223;53.654;10.014;2023-05-08T07:19:49;11.70;99.90
46508;DHT22;32223;53.654;10.014;2023-05-08T07:22:15;11.80;99.90
46508;DHT22;32223;53.654;10.014;2023-05-08T07:24:41;11.90;99.90
46508;DHT22;32223;53.654;10.014;2023-05-08T07:27:07;11.90;99.90
46508;DHT22;32223;53.654;10.014;2023-05-08T07:29:33;11.90;99.90
46508;DHT22;32223;53.654;10.014;2023-05-08T07:32:00;11.80;99.90
46508;DHT22;32223;53.654;10.014;2023-05-08T07:34:26;11.70;99.90
46508;DHT22;32223;53.654;10.014;2023-05-08T07:36:52;11.80;99.90
46508;DHT22;32223;53.654;10.014;2023-05-08T07:39:18;11.90;99.90
46508;DHT22;32223;53.654;10.014;2023-05-08T07:41:43;11.90;99.90
46508;DHT22;32223;53.654;10.014;2023-05-08T07:44:10;12.10;99.90
46508;DHT22;32223;53.654;10.014;2023-05-08T07:46:36;12.20;99.90
46508;DHT22;32223;53.654;10.014;2023-05-08T07:49:02;12.20;99.90
46508;DHT22;32223;53.654;10.014;2023-05-08T07:51:28;12.20;99.90
46508;DHT22;32223;53.654;10.014;2023-05-08T07:53:53;12.30;99.90
46508;DHT22;32223;53.654;10.014;2023-05-08T07:56:21;12.30;99.90
46508;DHT22;32223;53.654;10.014;2023-05-08T07:58:49;12.40;99.90
46508;DHT22;32223;53.654;10.014;2023-05-08T08:01:15;12.50;99.90
46508;DHT22;32223;53.654;10.014;2023-05-08T08:03:43;12.60;99.90
46508;DHT22;32223;53.654;10.014;2023-05-08T08:06:09;12.70;99.90
46508;DHT22;32223;53.654;10.014;2023-05-08T08:08:35;12.80;99.90
46508;DHT22;32223;53.654;10.014;2023-05-08T08:11:00;12.80;99.90
46508;DHT22;32223;53.654;10.014;2023-05-08T08:13:26;12.90;99.90
46508;DHT22;32223;53.654;10.014;2023-05-08T08:15:51;12.90;99.90
46508;DHT22;32223;53.654;10.014;2023-05-08T08:18:17;12.90;99.90
46508;DHT22;32223;53.654;10.014;2023-05-08T08:20:43;13.10;99.90
46508;DHT22;32223;53.654;10.014;2023-05-08T08:23:08;13.20;99.90
46508;DHT22;32223;53.654;10.014;2023-05-08T08:25:34;13.30;99.90
46508;DHT22;32223;53.654;10.014;2023-05-08T08:28:00;13.40;99.90
46508;DHT22;32223;53.654;10.014;2023-05-08T08:30:25;13.60;99.90
46508;DHT22;32223;53.654;10.014;2023-05-08T08:32:51;13.70;99.90
46508;DHT22;32223;53.654;10.014;2023-05-08T08:35:17;13.80;99.90
46508;DHT22;32223;53.654;10.014;2023-05-08T08:37:43;14.00;99.90
46508;DHT22;32223;53.654;10.014;2023-05-08T08:40:09;14.10;99.90
46508;DHT22;32223;53.654;10.014;2023-05-08T08:42:35;14.30;99.90
46508;DHT22;32223;53.654;10.014;2023-05-08T08:45:00;14.30;99.90
46508;DHT22;32223;53.654;10.014;2023-05-08T08:47:34;14.40;99.90
46508;DHT22;32223;53.654;10.014;2023-05-08T08:50:02;14.50;99.90
46508;DHT22;32223;53.654;10.014;2023-05-08T08:52:54;14.60;99.90
46508;DHT22;32223;53.654;10.014;2023-05-08T08:55:21;14.90;99.90
46508;DHT22;32223;53.654;10.014;2023-05-08T08:58:02;14.90;99.90
46508;DHT22;32223;53.654;10.014;2023-05-08T09:00:31;14.90;99.90
46508;DHT22;32223;53.654;10.014;2023-05-08T09:02:57;14.60;99.90
46508;DHT22;32223;53.654;10.014;2023-05-08T09:05:23;14.40;99.90
46508;DHT22;32223;53.654;10.014;2023-05-08T09:07:50;14.20;99.90
46508;DHT22;32223;53.654;10.014;2023-05-08T09:10:18;14.10;99.90
46508;DHT22;32223;53.654;10.014;2023-05-08T09:12:44;13.80;99.90
46508;DHT22;32223;53.654;10.014;2023-05-08T09:15:12;13.70;99.90
46508;DHT22;32223;53.654;10.014;2023-05-08T09:17:37;13.80;99.90
46508;DHT22;32223;53.654;10.014;2023-05-08T09:20:03;14.10;99.90
46508;DHT22;32223;53.654;10.014;2023-05-08T09:22:29;14.20;99.90
46508;DHT22;32223;53.654;10.014;2023-05-08T09:24:56;14.40;99.90
46508;DHT22;32223;53.654;10.014;2023-05-08T09:27:28;14.60;99.90
46508;DHT22;32223;53.654;10.014;2023-05-08T09:30:08;14.80;99.90
46508;DHT22;32223;53.654;10.014;2023-05-08T09:32:36;15.20;99.90
46508;DHT22;32223;53.654;10.014;2023-05-08T09:35:02;15.30;99.90
46508;DHT22;32223;53.654;10.014;2023-05-08T09:37:28;15.50;99.90
46508;DHT22;32223;53.654;10.014;2023-05-08T09:40:20;15.50;99.90
46508;DHT22;32223;53.654;10.014;2023-05-08T09:42:47;15.50;99.90
46508;DHT22;32223;53.654;10.014;2023-05-08T09:45:29;15.40;99.90
46508;DHT22;32223;53.654;10.014;2023-05-08T09:47:55;15.20;99.90
46508;DHT22;32223;53.654;10.014;2023-05-08T09:50:21;15.00;99.90
46508;DHT22;32223;53.654;10.014;2023-05-08T09:52:48;15.00;99.90
46508;DHT22;32223;53.654;10.014;2023-05-08T09:55:15;14.70;99.90
46508;DHT22;32223;53.654;10.014;2023-05-08T10:00:17;14.70;99.90
46508;DHT22;32223;53.654;10.014;2023-05-08T10:02:59;14.60;99.90
46508;DHT22;32223;53.654;10.014;2023-05-08T10:05:31;14.70;99.90
46508;DHT22;32223;53.654;10.014;2023-05-08T10:08:21;14.80;99.90
46508;DHT22;32223;53.654;10.014;2023-05-08T10:10:47;15.10;99.90
46508;DHT22;32223;53.654;10.014;2023-05-08T10:13:13;15.40;99.90
46508;DHT22;32223;53.654;10.014;2023-05-08T10:15:41;15.70;99.90
46508;DHT22;32223;53.654;10.014;2023-05-08T10:18:07;16.00;99.90
46508;DHT22;32223;53.654;10.014;2023-05-08T10:20:38;16.20;99.90
46508;DHT22;32223;53.654;10.014;2023-05-08T10:23:06;16.40;99.90
46508;DHT22;32223;53.654;10.014;2023-05-08T10:25:42;16.50;99.90
46508;DHT22;32223;53.654;10.014;2023-05-08T10:28:14;16.60;99.90
46508;DHT22;32223;53.654;10.014;2023-05-08T10:30:47;16.60;99.90
46508;DHT22;32223;53.654;10.014;2023-05-08T10:33:14;16.60;99.90
46508;DHT22;32223;53.654;10.014;2023-05-08T10:35:41;16.60;99.90
46508;DHT22;32223;53.654;10.014;2023-05-08T10:38:10;16.80;99.90
46508;DHT22;32223;53.654;10.014;2023-05-08T10:40:37;17.00;99.90
46508;DHT22;32223;53.654;10.014;2023-05-08T10:43:04;17.00;99.90
46508;DHT22;32223;53.654;10.014;2023-05-08T10:45:31;17.20;99.90
46508;DHT22;32223;53.654;10.014;2023-05-08T10:51:07;17.40;99.90
46508;DHT22;32223;53.654;10.014;2023-05-08T10:53:56;17.30;99.90
46508;DHT22;32223;53.654;10.014;2023-05-08T10:56:27;17.30;99.90
46508;DHT22;32223;53.654;10.014;2023-05-08T10:58:57;17.30;99.90
46508;DHT22;32223;53.654;10.014;2023-05-08T11:01:23;17.30;99.90
46508;DHT22;32223;53.654;10.014;2023-05-08T11:03:49;17.50;99.90
46508;DHT22;32223;53.654;10.014;2023-05-08T11:06:15;17.60;99.90
46508;DHT22;32223;53.654;10.014;2023-05-08T11:08:51;17.70;99.90
46508;DHT22;32223;53.654;10.014;2023-05-08T11:11:31;17.60;99.90
46508;DHT22;32223;53.654;10.014;2023-05-08T11:14:18;17.50;99.90
46508;DHT22;32223;53.654;10.014;2023-05-08T11:19:23;17.70;99.90
46508;DHT22;32223;53.654;10.014;2023-05-08T11:24:37;17.80;99.90
46508;DHT22;32223;53.654;10.014;2023-05-08T11:27:03;17.70;99.90
46508;DHT22;32223;53.654;10.014;2023-05-08T11:29:29;17.90;99.90
46508;DHT22;32223;53.654;10.014;2023-05-08T11:31:55;17.90;99.90
46508;DHT22;32223;53.654;10.014;2023-05-08T11:34:53;18.00;99.90
46508;DHT22;32223;53.654;10.014;2023-05-08T11:37:20;18.10;99.90
46508;DHT22;32223;53.654;10.014;2023-05-08T11:39:47;18.20;99.90
46508;DHT22;32223;53.654;10.014;2023-05-08T11:45:12;18.60;99.90
46508;DHT22;32223;53.654;10.014;2023-05-08T11:47:43;18.90;99.90
46508;DHT22;32223;53.654;10.014;2023-05-08T11:50:10;19.20;99.90
46508;DHT22;32223;53.654;10.014;2023-05-08T11:52:37;19.20;99.90
46508;DHT22;32223;53.654;10.014;2023-05-08T11:55:08;19.20;99.90
46508;DHT22;32223;53.654;10.014;2023-05-08T11:57:34;19.20;99.90
46508;DHT22;32223;53.654;10.014;2023-05-08T12:02:40;19.60;99.90
46508;DHT22;32223;53.654;10.014;2023-05-08T12:05:07;20.00;98.70
46508;DHT22;32223;53.654;10.014;2023-05-08T12:07:45;20.30;98.40
46508;DHT22;32223;53.654;10.014;2023-05-08T12:10:11;20.20;96.80
46508;DHT22;32223;53.654;10.014;2023-05-08T12:12:41;20.00;95.80
46508;DHT22;32223;53.654;10.014;2023-05-08T12:15:11;20.00;95.90
46508;DHT22;32223;53.654;10.014;2023-05-08T12:17:38;20.00;94.60
46508;DHT22;32223;53.654;10.014;2023-05-08T12:20:16;20.10;94.20
46508;DHT22;32223;53.654;10.014;2023-05-08T12:22:49;20.20;93.70
46508;DHT22;32223;53.654;10.014;2023-05-08T12:25:16;20.60;94.60
46508;DHT22;32223;53.654;10.014;2023-05-08T12:27:42;20.90;93.80
46508;DHT22;32223;53.654;10.014;2023-05-08T12:30:10;20.90;92.30
46508;DHT22;32223;53.654;10.014;2023-05-08T12:32:39;20.90;91.70
46508;DHT22;32223;53.654;10.014;2023-05-08T12:35:07;21.20;91.50
46508;DHT22;32223;53.654;10.014;2023-05-08T12:37:33;21.30;90.60
46508;DHT22;32223;53.654;10.014;2023-05-08T12:39:59;21.60;90.10
46508;DHT22;32223;53.654;10.014;2023-05-08T12:42:44;21.80;90.10
46508;DHT22;32223;53.654;10.014;2023-05-08T12:45:24;22.00;88.70
46508;DHT22;32223;53.654;10.014;2023-05-08T12:47:52;22.40;86.20
46508;DHT22;32223;53.654;10.014;2023-05-08T12:50:19;22.40;83.40
46508;DHT22;32223;53.654;10.014;2023-05-08T12:52:45;22.50;83.40
46508;DHT22;32223;53.654;10.014;2023-05-08T12:55:25;22.30;82.40
46508;DHT22;32223;53.654;10.014;2023-05-08T12:58:11;22.30;81.50
46508;DHT22;32223;53.654;10.014;2023-05-08T13:00:42;22.90;83.00
46508;DHT22;32223;53.654;10.014;2023-05-08T13:03:09;23.60;76.20
46508;DHT22;32223;53.654;10.014;2023-05-08T13:05:35;24.30;73.80
46508;DHT22;32223;53.654;10.014;2023-05-08T13:08:06;24.80;70.40
46508;DHT22;32223;53.654;10.014;2023-05-08T13:10:52;25.00;68.80
46508;DHT22;32223;53.654;10.014;2023-05-08T13:13:19;25.40;67.70
46508;DHT22;32223;53.654;10.014;2023-05-08T13:15:46;25.40;67.40
46508;DHT22;32223;53.654;10.014;2023-05-08T13:18:13;25.60;67.00
46508;DHT22;32223;53.654;10.014;2023-05-08T13:20:38;25.90;65.10
46508;DHT22;32223;53.654;10.014;2023-05-08T13:23:04;25.40;63.00
46508;DHT22;32223;53.654;10.014;2023-05-08T13:25:31;25.10;64.80
46508;DHT22;32223;53.654;10.014;2023-05-08T13:27:58;24.70;63.20
46508;DHT22;32223;53.654;10.014;2023-05-08T13:30:24;25.10;64.50
46508;DHT22;32223;53.654;10.014;2023-05-08T13:32:50;24.80;62.30
46508;DHT22;32223;53.654;10.014;2023-05-08T13:35:17;24.00;62.20
46508;DHT22;32223;53.654;10.014;2023-05-08T13:37:43;24.10;64.60
46508;DHT22;32223;53.654;10.014;2023-05-08T13:40:09;24.10;66.40
46508;DHT22;32223;53.654;10.014;2023-05-08T13:42:35;23.60;65.20
46508;DHT22;32223;53.654;10.014;2023-05-08T13:45:03;23.60;65.10
46508;DHT22;32223;53.654;10.014;2023-05-08T13:47:28;23.60;65.80
46508;DHT22;32223;53.654;10.014;2023-05-08T13:49:54;23.50;63.60
46508;DHT22;32223;53.654;10.014;2023-05-08T13:52:19;23.10;65.50
46508;DHT22;32223;53.654;10.014;2023-05-08T13:54:45;23.00;64.80
46508;DHT22;32223;53.654;10.014;2023-05-08T13:57:11;24.00;65.80
46508;DHT22;32223;53.654;10.014;2023-05-08T13:59:36;25.40;66.50
46508;DHT22;32223;53.654;10.014;2023-05-08T14:02:02;26.50;62.10
46508;DHT22;32223;53.654;10.014;2023-05-08T14:04:28;26.90;60.40
46508;DHT22;32223;53.654;10.014;2023-05-08T14:06:53;27.20;61.90
46508;DHT22;32223;53.654;10.014;2023-05-08T14:09:19;27.40;59.50
46508;DHT22;32223;53.654;10.014;2023-05-08T14:11:44;27.40;60.90
46508;DHT22;32223;53.654;10.014;2023-05-08T14:14:10;27.60;59.80
46508;DHT22;32223;53.654;10.014;2023-05-08T14:16:36;27.70;57.30
46508;DHT22;32223;53.654;10.014;2023-05-08T14:19:01;27.70;57.70
46508;DHT22;32223;53.654;10.014;2023-05-08T14:21:27;27.80;56.60
46508;DHT22;32223;53.654;10.014;2023-05-08T14:23:53;27.80;56.90
46508;DHT22;32223;53.654;10.014;2023-05-08T14:26:19;27.90;56.00
46508;DHT22;32223;53.654;10.014;2023-05-08T14:28:45;27.90;56.50
46508;DHT22;32223;53.654;10.014;2023-05-08T14:31:11;28.20;56.90
46508;DHT22;32223;53.654;10.014;2023-05-08T14:33:36;28.60;56.60
46508;DHT22;32223;53.654;10.014;2023-05-08T14:36:02;28.90;55.70
46508;DHT22;32223;53.654;10.014;2023-05-08T14:38:28;29.00;53.80
46508;DHT22;32223;53.654;10.014;2023-05-08T14:40:53;29.20;55.00
46508;DHT22;32223;53.654;10.014;2023-05-08T14:43:20;28.90;54.50
46508;DHT22;32223;53.654;10.014;2023-05-08T14:45:45;28.90;55.00
46508;DHT22;32223;53.654;10.014;2023-05-08T14:48:11;29.10;54.40
46508;DHT22;32223;53.654;10.014;2023-05-08T14:50:37;28.90;53.50
46508;DHT22;32223;53.654;10.014;2023-05-08T14:53:02;29.10;56.00
46508;DHT22;32223;53.654;10.014;2023-05-08T14:55:28;29.30;53.70
46508;DHT22;32223;53.654;10.014;2023-05-08T14:57:53;29.00;53.70
46508;DHT22;32223;53.654;10.014;2023-05-08T15:00:19;28.40;53.40
46508;DHT22;32223;53.654;10.014;2023-05-08T15:02:46;27.40;53.60
46508;DHT22;32223;53.654;10.014;2023-05-08T15:05:11;26.40;54.00
46508;DHT22;32223;53.654;10.014;2023-05-08T15:07:37;26.10;55.30
46508;DHT22;32223;53.654;10.014;2023-05-08T15:10:03;25.90;55.40
46508;DHT22;32223;53.654;10.014;2023-05-08T15:12:29;25.80;55.20
46508;DHT22;32223;53.654;10.014;2023-05-08T15:14:55;26.20;56.50
46508;DHT22;32223;53.654;10.014;2023-05-08T15:17:20;26.70;54.10
46508;DHT22;32223;53.654;10.014;2023-05-08T15:19:46;27.20;53.90
46508;DHT22;32223;53.654;10.014;2023-05-08T15:22:12;27.60;53.90
46508;DHT22;32223;53.654;10.014;2023-05-08T15:24:37;27.90;54.90
46508;DHT22;32223;53.654;10.014;2023-05-08T15:27:03;28.10;52.20
46508;DHT22;32223;53.654;10.014;2023-05-08T15:29:29;27.80;52.70
46508;DHT22;32223;53.654;10.014;2023-05-08T15:31:54;28.10;51.90
46508;DHT22;32223;53.654;10.014;2023-05-08T15:34:20;28.30;51.50
46508;DHT22;32223;53.654;10.014;2023-05-08T15:36:46;28.60;52.20
46508;DHT22;32223;53.654;10.014;2023-05-08T15:39:12;28.50;51.30
46508;DHT22;32223;53.654;10.014;2023-05-08T15:41:38;28.20;51.90
46508;DHT22;32223;53.654;10.014;2023-05-08T15:44:08;28.40;51.00
46508;DHT22;32223;53.654;10.014;2023-05-08T15:46:34;28.30;51.10
46508;DHT22;32223;53.654;10.014;2023-05-08T15:49:00;28.20;50.20
46508;DHT22;32223;53.654;10.014;2023-05-08T15:51:25;27.90;50.30
46508;DHT22;32223;53.654;10.014;2023-05-08T15:53:51;27.90;50.90
46508;DHT22;32223;53.654;10.014;2023-05-08T15:56:19;28.20;51.00
46508;DHT22;32223;53.654;10.014;2023-05-08T15:58:49;28.10;50.30
46508;DHT22;32223;53.654;10.014;2023-05-08T16:01:14;27.80;51.40
46508;DHT22;32223;53.654;10.014;2023-05-08T16:03:40;27.50;50.40
46508;DHT22;32223;53.654;10.014;2023-05-08T16:06:06;28.00;50.80
46508;DHT22;32223;53.654;10.014;2023-05-08T16:08:31;27.80;50.40